Time;durP1;ratioP1;P1;durP2;ratioP2;P2;SDS_P1;SDS_P2;PMS_P1;PMS_P2;Temp;Humidity;BMP_temperature;BMP_pressure;BME280_temperature;BME280_humidity;BME280_pressure;Samples;Min_cycle;Max_cycle;Signal;HPM_P1;HPM_P2
2022/05/22 00:00:20;;;;;;;5.80;2.08;;;10.30;99.90;;;;;;5094969;28;20072;-71
2022/05/22 00:02:46;;;;;;;6.40;2.55;;;10.30;99.90;;;;;;5094825;28;20028;-71
2022/05/22 00:05:20;;;;;;;12.43;2.92;;;10.20;99.90;;;;;;5094338;28;20096;-71
2022/05/22 00:07:46;;;;;;;5.22;1.98;;;10.30;99.90;;;;;;5080147;28;20028;-71
2022/05/22 00:10:13;;;;;;;10.95;2.97;;;10.30;99.90;;;;;;5094812;28;20028;-71
2022/05/22 00:12:40;;;;;;;9.52;2.88;;;10.30;99.90;;;;;;5094750;28;20585;-71
2022/05/22 00:15:06;;;;;;;8.85;3.40;;;10.30;99.90;;;;;;5091865;28;20040;-71
2022/05/22 00:17:32;;;;;;;11.50;3.47;;;10.40;99.90;;;;;;5092975;28;20028;-71
2022/05/22 00:19:58;;;;;;;12.10;3.22;;;10.40;99.90;;;;;;5094615;28;20043;-71
2022/05/22 00:22:24;;;;;;;11.43;3.75;;;10.50;99.90;;;;;;5092677;28;20031;-71
2022/05/22 00:24:49;;;;;;;12.13;3.00;;;10.50;99.90;;;;;;5094784;28;20024;-71
2022/05/22 00:27:15;;;;;;;9.55;3.42;;;10.60;99.90;;;;;;5097824;28;20110;-70
2022/05/22 00:29:42;;;;;;;9.75;3.38;;;10.50;99.90;;;;;;5114261;28;20044;-71
2022/05/22 00:32:08;;;;;;;9.90;3.42;;;10.60;99.90;;;;;;5089373;28;20032;-71
2022/05/22 00:34:35;;;;;;;6.45;2.88;;;10.60;99.90;;;;;;5093500;28;20027;-70
2022/05/22 00:37:01;;;;;;;13.47;3.63;;;10.60;99.90;;;;;;5092815;28;20073;-70
2022/05/22 00:39:26;;;;;;;8.30;3.33;;;10.60;99.90;;;;;;5092692;28;20261;-70
2022/05/22 00:41:54;;;;;;;7.47;3.28;;;10.60;99.90;;;;;;5092796;28;20020;-70
2022/05/22 00:44:21;;;;;;;10.95;3.47;;;10.70;99.90;;;;;;5093095;28;20032;-70
2022/05/22 00:46:47;;;;;;;4.15;2.95;;;10.80;99.90;;;;;;5092786;28;20537;-70
2022/05/22 00:49:29;;;;;;;7.90;2.92;;;10.80;99.90;;;;;;5093398;28;20028;-70
2022/05/22 00:52:03;;;;;;;8.43;3.20;;;10.80;99.90;;;;;;5092787;28;20040;-71
2022/05/22 00:54:37;;;;;;;11.02;3.28;;;10.70;99.90;;;;;;5092837;28;20045;-70
2022/05/22 00:57:18;;;;;;;10.88;3.10;;;10.70;99.90;;;;;;5080915;28;20042;-70
2022/05/22 00:59:53;;;;;;;6.50;3.03;;;10.60;99.90;;;;;;5091934;28;20035;-70
2022/05/22 01:02:20;;;;;;;5.57;3.15;;;10.60;99.90;;;;;;5092696;28;20020;-70
2022/05/22 01:04:48;;;;;;;8.88;3.83;;;10.50;99.90;;;;;;5092177;28;20030;-71
2022/05/22 01:07:14;;;;;;;11.40;3.78;;;10.50;99.90;;;;;;5077258;28;20396;-71
2022/05/22 01:09:40;;;;;;;9.27;3.42;;;10.50;99.90;;;;;;5092005;28;20028;-71
2022/05/22 01:12:12;;;;;;;7.60;3.20;;;10.50;99.90;;;;;;5092588;28;20453;-71
2022/05/22 01:14:39;;;;;;;9.07;3.28;;;10.50;99.90;;;;;;5092655;28;20480;-71
2022/05/22 01:17:08;;;;;;;10.50;3.42;;;10.40;99.90;;;;;;5091895;28;20027;-70
2022/05/22 01:19:34;;;;;;;8.70;4.20;;;10.40;99.90;;;;;;5092592;28;20443;-71
2022/05/22 01:22:15;;;;;;;11.68;4.35;;;10.40;99.90;;;;;;5084872;28;20028;-71
2022/05/22 01:24:41;;;;;;;12.00;4.13;;;10.40;99.90;;;;;;5091846;28;20035;-70
2022/05/22 01:27:11;;;;;;;8.45;4.30;;;10.40;99.90;;;;;;5092207;28;20479;-71
2022/05/22 01:30:58;;;;;;;14.10;3.88;;;10.50;99.90;;;;;;5088967;27;20451;-71
2022/05/22 01:33:23;;;;;;;10.10;3.90;;;10.50;99.90;;;;;;5089235;28;20025;-71
2022/05/22 01:35:49;;;;;;;10.43;4.20;;;10.40;99.90;;;;;;5088961;28;20530;-70
2022/05/22 01:38:16;;;;;;;14.02;4.82;;;10.40;99.90;;;;;;5080198;28;20052;-71
2022/05/22 01:40:42;;;;;;;14.32;4.72;;;10.40;99.90;;;;;;5087786;28;20032;-71
2022/05/22 01:43:07;;;;;;;12.07;4.80;;;10.50;99.90;;;;;;5076280;28;20116;-71
2022/05/22 01:45:33;;;;;;;17.20;5.30;;;10.50;99.90;;;;;;5086828;28;20111;-71
2022/05/22 01:47:59;;;;;;;12.25;4.15;;;10.50;99.90;;;;;;5088551;28;20077;-71
2022/05/22 01:50:25;;;;;;;12.68;4.13;;;10.50;99.90;;;;;;5089040;28;20573;-71
2022/05/22 01:52:51;;;;;;;10.48;4.50;;;10.50;99.90;;;;;;5088259;28;20027;-70
2022/05/22 01:55:17;;;;;;;14.73;3.60;;;10.50;99.90;;;;;;5087104;28;20029;-70
2022/05/22 01:57:43;;;;;;;13.43;5.18;;;10.40;99.90;;;;;;5086510;28;20439;-71
2022/05/22 02:00:12;;;;;;;9.35;4.50;;;10.30;99.90;;;;;;5088722;28;20024;-72
2022/05/22 02:02:38;;;;;;;13.55;4.55;;;10.20;99.90;;;;;;5088059;28;20032;-71
2022/05/22 02:05:04;;;;;;;11.82;4.55;;;10.20;99.90;;;;;;5084696;28;20470;-71
2022/05/22 02:10:14;;;;;;;14.43;4.95;;;10.20;99.90;;;;;;5088178;28;20062;-71
2022/05/22 02:12:40;;;;;;;11.38;4.18;;;10.10;99.90;;;;;;5087759;28;20032;-70
2022/05/22 02:15:07;;;;;;;19.45;5.47;;;10.10;99.90;;;;;;5087767;28;20021;-70
2022/05/22 02:17:34;;;;;;;11.00;4.20;;;10.00;99.90;;;;;;5088058;28;20069;-71
2022/05/22 02:19:59;;;;;;;15.15;5.25;;;10.10;99.90;;;;;;5088246;28;20480;-71
2022/05/22 02:22:25;;;;;;;14.82;4.43;;;10.10;99.90;;;;;;5087786;28;20028;-70
2022/05/22 02:24:53;;;;;;;11.02;4.15;;;10.00;99.90;;;;;;5084459;28;20170;-70
2022/05/22 02:27:19;;;;;;;;;;;10.00;99.90;;;;;;5083277;28;20067;-71
2022/05/22 02:29:44;;;;;;;8.55;2.47;;;10.00;99.90;;;;;;5086095;28;20440;-71
2022/05/22 02:32:10;;;;;;;9.63;3.75;;;10.00;99.90;;;;;;5087520;28;20490;-70
2022/05/22 02:34:36;;;;;;;9.15;3.50;;;9.90;99.90;;;;;;5068593;28;20052;-71
2022/05/22 02:37:02;;;;;;;10.18;3.80;;;9.90;99.90;;;;;;5080140;28;20032;-70
2022/05/22 02:39:29;;;;;;;9.40;3.70;;;9.90;99.90;;;;;;5087981;28;20107;-70
2022/05/22 02:42:04;;;;;;;6.45;3.38;;;10.00;99.90;;;;;;5074465;28;20393;-70
2022/05/22 02:44:30;;;;;;;10.75;3.22;;;10.00;99.90;;;;;;5074307;28;20412;-70
2022/05/22 02:46:56;;;;;;;9.07;2.97;;;9.90;99.90;;;;;;5074069;28;20051;-71
2022/05/22 02:49:21;;;;;;;5.28;2.58;;;9.90;99.90;;;;;;5074259;28;20412;-70
2022/05/22 02:51:47;;;;;;;4.45;2.65;;;9.70;99.90;;;;;;5073608;28;20379;-70
2022/05/22 02:54:13;;;;;;;9.70;2.90;;;9.60;99.90;;;;;;5074015;28;20032;-70
2022/05/22 02:56:40;;;;;;;7.53;2.72;;;9.50;99.90;;;;;;5073913;28;20070;-70
2022/05/22 02:59:06;;;;;;;7.30;2.72;;;9.30;99.90;;;;;;5074046;28;20032;-70
2022/05/22 03:01:31;;;;;;;7.70;3.40;;;9.30;99.90;;;;;;5068685;28;20028;-70
2022/05/22 03:03:57;;;;;;;9.70;3.70;;;9.20;99.90;;;;;;5073685;28;20480;-70
2022/05/22 03:06:38;;;;;;;8.82;3.88;;;9.20;99.90;;;;;;5073929;28;20078;-70
2022/05/22 03:09:13;;;;;;;12.65;4.72;;;9.10;99.90;;;;;;5073711;28;20032;-70
2022/05/22 03:11:39;;;;;;;8.95;4.68;;;9.10;99.90;;;;;;5073787;28;20028;-70
2022/05/22 03:14:06;;;;;;;7.95;4.07;;;9.10;99.90;;;;;;5073570;28;20036;-69
2022/05/22 03:16:32;;;;;;;8.85;4.00;;;9.10;99.90;;;;;;5069822;28;20078;-70
2022/05/22 03:18:59;;;;;;;9.73;4.37;;;9.00;99.90;;;;;;5071544;28;20085;-70
2022/05/22 03:21:27;;;;;;;10.50;4.30;;;9.10;99.90;;;;;;5073831;28;20024;-70
2022/05/22 03:23:53;;;;;;;;;;;9.10;99.90;;;;;;5073776;28;20123;-70
2022/05/22 03:26:19;;;;;;;7.50;3.67;;;9.10;99.90;;;;;;5056966;28;20471;-71
2022/05/22 03:28:44;;;;;;;10.75;4.28;;;9.10;99.90;;;;;;5072618;28;20162;-70
2022/05/22 03:31:10;;;;;;;13.85;4.22;;;9.10;99.90;;;;;;5073172;28;20025;-70
2022/05/22 03:33:36;;;;;;;10.20;4.50;;;9.00;99.90;;;;;;5073253;28;20029;-70
2022/05/22 03:36:01;;;;;;;18.42;5.07;;;9.10;99.90;;;;;;5073179;28;20031;-70
2022/05/22 03:38:27;;;;;;;27.17;6.78;;;9.20;99.90;;;;;;5073095;28;20047;-70
2022/05/22 03:40:53;;;;;;;15.15;4.13;;;9.20;99.90;;;;;;5072832;28;20071;-70
2022/05/22 03:43:18;;;;;;;12.82;4.10;;;9.20;99.90;;;;;;5066067;28;20476;-69
2022/05/22 03:45:44;;;;;;;12.20;3.95;;;9.10;99.90;;;;;;5068838;28;20854;-70
2022/05/22 03:48:11;;;;;;;10.02;4.43;;;9.00;99.90;;;;;;5072472;28;20028;-70
2022/05/22 03:50:37;;;;;;;12.57;3.70;;;9.00;99.90;;;;;;5060304;28;20039;-70
2022/05/22 03:53:04;;;;;;;9.93;4.00;;;9.00;99.90;;;;;;5069687;28;20028;-69
2022/05/22 03:55:30;;;;;;;8.18;3.55;;;8.90;99.90;;;;;;5072030;28;20072;-70
2022/05/22 03:57:56;;;;;;;8.30;3.42;;;8.90;99.90;;;;;;5072918;28;20025;-70
2022/05/22 04:00:24;;;;;;;10.60;4.05;;;9.00;99.90;;;;;;5069972;28;20024;-69
2022/05/22 04:02:51;;;;;;;8.45;3.72;;;9.00;99.90;;;;;;5061219;28;20021;-70
2022/05/22 04:05:17;;;;;;;7.28;2.80;;;8.90;99.90;;;;;;5065817;28;20025;-69
2022/05/22 04:07:45;;;;;;;7.80;3.08;;;8.90;99.90;;;;;;5072423;28;20029;-70
2022/05/22 04:10:13;;;;;;;9.75;3.13;;;8.90;99.90;;;;;;5072269;28;20477;-70
2022/05/22 04:12:42;;;;;;;8.40;3.42;;;8.90;99.90;;;;;;5071922;28;20522;-70
2022/05/22 04:15:09;;;;;;;6.88;3.03;;;8.90;99.90;;;;;;5060733;28;20059;-69
2022/05/22 04:17:35;;;;;;;5.72;2.70;;;8.80;99.90;;;;;;5069509;28;20025;-70
2022/05/22 04:20:01;;;;;;;12.10;3.58;;;8.80;99.90;;;;;;5064919;28;20384;-70
2022/05/22 04:22:27;;;;;;;8.38;3.58;;;8.80;99.90;;;;;;5071296;28;20365;-70
2022/05/22 04:25:11;;;;;;;7.63;2.60;;;8.80;99.90;;;;;;5072231;28;20040;-69
2022/05/22 04:27:42;;;;;;;6.68;2.80;;;8.80;99.90;;;;;;5070753;28;20032;-69
2022/05/22 04:30:17;;;;;;;12.65;3.30;;;8.70;99.90;;;;;;5071567;28;20428;-70
2022/05/22 04:32:43;;;;;;;7.43;2.85;;;8.70;99.90;;;;;;5070841;28;20031;-69
2022/05/22 04:35:09;;;;;;;9.90;2.72;;;8.70;99.90;;;;;;5072325;28;20028;-69
2022/05/22 04:37:34;;;;;;;7.00;2.75;;;8.70;99.90;;;;;;5072014;28;20021;-70
2022/05/22 04:40:00;;;;;;;5.18;2.92;;;8.70;99.90;;;;;;5055800;28;20049;-69
2022/05/22 04:42:26;;;;;;;9.23;3.15;;;8.70;99.90;;;;;;5070720;28;20028;-70
2022/05/22 04:44:51;;;;;;;9.10;3.33;;;8.80;99.90;;;;;;5071789;28;20032;-70
2022/05/22 04:47:17;;;;;;;7.43;2.40;;;8.80;99.90;;;;;;5071969;28;20032;-70
2022/05/22 04:49:43;;;;;;;7.07;3.15;;;8.80;99.90;;;;;;5071404;28;20115;-70
2022/05/22 04:52:08;;;;;;;9.77;3.10;;;8.80;99.90;;;;;;5070452;28;20058;-70
2022/05/22 04:54:34;;;;;;;7.80;3.35;;;8.80;99.90;;;;;;5070267;28;20032;-70
2022/05/22 04:57:01;;;;;;;7.35;3.55;;;8.80;99.90;;;;;;5071921;28;20031;-70
2022/05/22 04:59:27;;;;;;;7.38;3.25;;;8.80;99.90;;;;;;5070560;28;20024;-70
2022/05/22 05:01:52;;;;;;;6.15;2.78;;;8.80;99.90;;;;;;5069826;28;20040;-70
2022/05/22 05:04:18;;;;;;;5.93;3.30;;;8.80;99.90;;;;;;5071436;28;20032;-70
2022/05/22 05:06:44;;;;;;;9.75;3.50;;;8.90;99.90;;;;;;5071383;28;20074;-70
2022/05/22 05:09:09;;;;;;;8.38;3.58;;;9.00;99.90;;;;;;5071289;28;20060;-69
2022/05/22 05:11:35;;;;;;;4.32;2.72;;;9.00;99.90;;;;;;5070433;28;20021;-70
2022/05/22 05:14:02;;;;;;;5.07;3.00;;;9.10;99.90;;;;;;5070363;28;20059;-70
2022/05/22 05:16:29;;;;;;;7.50;3.55;;;9.10;99.90;;;;;;5071296;28;20075;-70
2022/05/22 05:18:55;;;;;;;5.55;3.00;;;9.20;99.90;;;;;;5068615;28;20027;-70
2022/05/22 05:21:20;;;;;;;4.65;3.25;;;9.30;99.90;;;;;;5066016;28;20103;-70
2022/05/22 05:23:46;;;;;;;6.78;3.13;;;9.30;99.90;;;;;;5070840;28;20024;-70
2022/05/22 05:26:13;;;;;;;6.05;3.00;;;9.40;99.90;;;;;;5068047;28;20377;-70
2022/05/22 05:28:38;;;;;;;5.38;3.28;;;9.50;99.90;;;;;;5063613;28;20046;-69
2022/05/22 05:31:04;;;;;;;6.78;3.13;;;9.60;99.90;;;;;;5069491;28;20063;-70
2022/05/22 05:33:33;;;;;;;8.95;2.80;;;9.70;99.90;;;;;;5071330;28;20154;-70
2022/05/22 05:35:59;;;;;;;6.25;2.97;;;9.70;99.90;;;;;;5069422;28;20035;-70
2022/05/22 05:38:25;;;;;;;6.90;2.97;;;9.70;99.90;;;;;;5071366;28;20040;-70
2022/05/22 05:40:51;;;;;;;7.28;3.60;;;9.70;99.90;;;;;;5070835;28;20028;-70
2022/05/22 05:43:17;;;;;;;7.97;3.28;;;9.70;99.90;;;;;;5069681;28;20055;-70
2022/05/22 05:45:43;;;;;;;9.80;3.90;;;9.70;99.90;;;;;;5071187;28;20036;-70
2022/05/22 05:48:09;;;;;;;7.88;3.35;;;9.80;99.90;;;;;;5071027;28;20044;-70
2022/05/22 05:50:35;;;;;;;5.38;3.10;;;9.80;99.90;;;;;;5068982;28;20115;-70
2022/05/22 05:53:02;;;;;;;8.20;2.60;;;9.90;99.90;;;;;;5071005;28;20111;-70
2022/05/22 05:55:29;;;;;;;7.82;3.10;;;9.90;99.90;;;;;;5070693;28;20029;-70
2022/05/22 05:57:56;;;;;;;6.83;2.80;;;10.00;99.90;;;;;;5065556;28;20071;-70
2022/05/22 06:00:23;;;;;;;5.45;2.60;;;10.10;99.90;;;;;;5070348;28;20261;-70
2022/05/22 06:02:49;;;;;;;6.50;2.85;;;10.20;99.90;;;;;;5070910;28;20415;-70
2022/05/22 06:05:16;;;;;;;6.10;2.60;;;10.30;99.90;;;;;;5068353;28;20029;-70
2022/05/22 06:07:42;;;;;;;4.97;2.70;;;10.50;99.90;;;;;;5070948;28;20135;-69
2022/05/22 06:10:11;;;;;;;6.65;2.90;;;10.70;99.90;;;;;;5070780;28;20025;-70
2022/05/22 06:12:36;;;;;;;4.85;2.80;;;10.90;99.90;;;;;;5070974;28;20033;-70
2022/05/22 06:15:03;;;;;;;4.45;2.03;;;11.00;99.90;;;;;;5068855;28;20028;-69
2022/05/22 06:17:34;;;;;;;4.35;2.55;;;11.20;99.90;;;;;;5074039;28;20032;-70
2022/05/22 06:20:01;;;;;;;5.32;3.05;;;11.30;99.90;;;;;;5074112;28;20077;-70
2022/05/22 06:22:28;;;;;;;4.93;2.67;;;11.50;99.90;;;;;;5074807;28;20029;-69
2022/05/22 06:24:54;;;;;;;3.80;2.25;;;11.60;99.90;;;;;;5074714;28;20359;-70
2022/05/22 06:27:21;;;;;;;7.25;2.72;;;11.70;99.90;;;;;;5074688;28;20440;-70
2022/05/22 06:29:47;;;;;;;7.13;3.58;;;11.80;99.90;;;;;;5073461;28;20072;-70
2022/05/22 06:32:17;;;;;;;5.75;3.20;;;12.00;99.90;;;;;;5072854;28;20021;-69
2022/05/22 06:34:43;;;;;;;10.15;3.80;;;12.20;99.90;;;;;;5071934;28;20017;-69
2022/05/22 06:37:12;;;;;;;8.27;3.97;;;12.40;99.90;;;;;;5072348;28;20024;-69
2022/05/22 06:39:53;;;;;;;8.13;4.35;;;12.50;99.90;;;;;;5072557;28;20111;-69
2022/05/22 06:42:22;;;;;;;9.60;4.22;;;12.60;99.90;;;;;;5074296;28;20060;-69
2022/05/22 06:45:01;;;;;;;12.15;4.47;;;12.80;99.90;;;;;;5073957;28;20112;-69
2022/05/22 06:47:28;;;;;;;12.98;5.25;;;13.10;99.90;;;;;;5074104;28;20132;-69
2022/05/22 06:49:55;;;;;;;11.35;4.60;;;13.20;99.90;;;;;;5073392;28;20516;-69
2022/05/22 06:52:21;;;;;;;13.23;5.22;;;13.30;99.90;;;;;;5072859;28;20473;-69
2022/05/22 06:54:47;;;;;;;13.68;5.18;;;13.40;99.90;;;;;;5068270;28;20108;-69
2022/05/22 06:57:20;;;;;;;11.45;4.63;;;13.50;99.90;;;;;;5072497;28;20124;-69
2022/05/22 06:59:47;;;;;;;10.68;4.57;;;13.50;99.90;;;;;;5073861;28;20032;-69
2022/05/22 07:02:14;;;;;;;9.27;4.30;;;13.50;99.90;;;;;;5074116;28;20051;-69
2022/05/22 07:04:40;;;;;;;9.15;4.63;;;13.60;99.90;;;;;;5072102;28;20035;-68
2022/05/22 07:07:07;;;;;;;9.98;5.10;;;13.70;99.90;;;;;;5070145;28;20397;-69
2022/05/22 07:09:32;;;;;;;13.00;5.43;;;13.80;99.90;;;;;;5073727;28;20040;-69
2022/05/22 07:11:59;;;;;;;10.70;6.25;;;13.90;99.90;;;;;;5073656;28;20254;-69
2022/05/22 07:14:27;;;;;;;13.18;5.65;;;14.10;99.90;;;;;;5072706;28;20037;-69
2022/05/22 07:16:54;;;;;;;12.05;5.82;;;14.30;99.90;;;;;;5087195;28;20035;-69
2022/05/22 07:19:20;;;;;;;15.95;5.55;;;14.40;99.90;;;;;;5091466;28;20491;-69
2022/05/22 07:21:47;;;;;;;11.98;4.85;;;14.50;99.90;;;;;;5071278;28;20104;-69
2022/05/22 07:24:13;;;;;;;15.07;4.70;;;14.60;99.90;;;;;;5069364;28;20107;-69
2022/05/22 07:26:40;;;;;;;8.38;5.05;;;14.70;99.90;;;;;;5071868;28;20028;-70
2022/05/22 07:29:06;;;;;;;8.38;4.05;;;15.00;99.90;;;;;;5071997;28;21501;-70
2022/05/22 07:31:32;;;;;;;12.80;4.88;;;15.40;99.90;;;;;;5073443;28;20055;-69
2022/05/22 07:33:59;;;;;;;11.73;5.35;;;15.60;99.90;;;;;;5065443;28;20106;-70
2022/05/22 07:36:24;;;;;;;13.45;5.97;;;15.40;99.90;;;;;;5073177;28;20029;-70
2022/05/22 07:38:50;;;;;;;11.32;5.32;;;15.10;99.90;;;;;;5072752;28;20082;-70
2022/05/22 07:41:16;;;;;;;13.05;5.88;;;14.80;99.90;;;;;;5071125;28;20115;-70
2022/05/22 07:43:42;;;;;;;13.50;6.38;;;14.70;99.90;;;;;;5073227;28;20232;-69
2022/05/22 07:46:11;;;;;;;9.88;6.07;;;14.70;99.90;;;;;;5071467;28;20477;-70
2022/05/22 07:48:37;;;;;;;12.23;6.80;;;14.70;99.90;;;;;;5066713;28;20115;-70
2022/05/22 07:51:04;;;;;;;12.73;5.82;;;14.80;99.90;;;;;;5069715;28;20062;-70
2022/05/22 07:53:31;;;;;;;9.93;5.80;;;14.80;99.90;;;;;;5072415;28;20031;-70
2022/05/22 07:55:57;;;;;;;9.57;5.27;;;14.70;99.90;;;;;;5072134;28;20034;-70
2022/05/22 07:58:25;;;;;;;10.45;5.13;;;14.50;99.90;;;;;;5070025;28;20265;-70
2022/05/22 08:00:52;;;;;;;10.80;5.32;;;14.50;99.90;;;;;;5070679;28;20051;-70
2022/05/22 08:03:19;;;;;;;12.25;6.03;;;14.60;99.90;;;;;;5072611;28;20035;-70
2022/05/22 08:05:46;;;;;;;10.75;6.15;;;14.70;99.90;;;;;;5073064;28;20225;-70
2022/05/22 08:08:12;;;;;;;11.73;5.22;;;14.80;99.90;;;;;;5071686;28;20037;-70
2022/05/22 08:10:40;;;;;;;9.57;4.28;;;15.00;99.90;;;;;;5071450;28;20598;-70
2022/05/22 08:13:07;;;;;;;7.55;3.65;;;15.30;99.90;;;;;;5072368;28;20021;-70
2022/05/22 08:15:35;;;;;;;9.07;4.50;;;15.60;99.90;;;;;;5072790;28;20028;-70
2022/05/22 08:18:01;;;;;;;7.07;3.40;;;15.90;99.90;;;;;;5072160;28;20269;-71
2022/05/22 08:20:29;;;;;;;7.10;3.20;;;16.10;99.90;;;;;;5072605;28;20118;-70
2022/05/22 08:22:56;;;;;;;7.97;3.08;;;16.40;99.90;;;;;;5071484;28;20111;-70
2022/05/22 08:25:24;;;;;;;5.70;2.95;;;16.60;99.90;;;;;;5069732;28;20036;-71
2022/05/22 08:27:53;;;;;;;;;;;17.00;99.90;;;;;;5072906;28;20074;-71
2022/05/22 08:30:21;;;;;;;6.93;2.95;;;17.40;99.90;;;;;;5071889;28;19920;-71
2022/05/22 08:32:48;;;;;;;9.02;3.03;;;18.00;99.90;;;;;;5058016;28;20047;-70
2022/05/22 08:35:16;;;;;;;7.13;2.22;;;18.20;99.90;;;;;;5072193;28;20024;-70
2022/05/22 08:37:43;;;;;;;6.40;2.13;;;18.60;99.90;;;;;;5072420;28;20465;-71
2022/05/22 08:40:12;;;;;;;9.02;2.35;;;19.10;99.20;;;;;;5072124;28;20429;-70
2022/05/22 08:42:47;;;;;;;9.20;2.97;;;19.70;98.00;;;;;;5058831;28;20029;-71
2022/05/22 08:45:16;;;;;;;4.15;2.00;;;19.90;97.60;;;;;;5072310;28;20048;-70
2022/05/22 08:48:01;;;;;;;5.72;2.10;;;19.70;97.00;;;;;;5070674;28;20028;-71
2022/05/22 08:50:29;;;;;;;5.43;1.80;;;19.60;97.00;;;;;;5072472;28;20029;-70
2022/05/22 08:53:04;;;;;;;6.32;2.05;;;19.80;97.30;;;;;;5072041;28;20028;-70
2022/05/22 09:01:34;;;;;;;4.53;2.13;;;21.00;93.80;;;;;;5071768;28;20048;-72
2022/05/22 09:04:31;;;;;;;6.43;2.10;;;21.10;93.60;;;;;;5071685;28;20040;-70
2022/05/22 09:07:17;;;;;;;6.40;2.00;;;21.00;91.80;;;;;;5071864;28;20493;-71
2022/05/22 09:09:46;;;;;;;7.55;2.10;;;20.60;93.00;;;;;;5070630;28;20028;-68
2022/05/22 09:12:15;;;;;;;7.80;1.90;;;20.30;94.90;;;;;;5067949;28;20036;-73
2022/05/22 09:14:44;;;;;;;5.93;2.10;;;19.80;94.80;;;;;;5070341;28;20085;-72
2022/05/22 09:17:32;;;;;;;5.72;1.50;;;19.40;95.40;;;;;;5070836;28;20029;-71
2022/05/22 09:20:28;;;;;;;6.95;1.88;;;19.40;97.00;;;;;;5069175;28;20024;-72
2022/05/22 09:23:06;;;;;;;5.63;1.50;;;19.80;94.30;;;;;;5070999;28;20058;-72
2022/05/22 09:25:42;;;;;;;8.35;2.05;;;20.20;94.50;;;;;;5070780;28;20268;-70
2022/05/22 09:28:29;;;;;;;4.60;1.65;;;20.30;95.00;;;;;;5069772;28;20032;-72
2022/05/22 09:31:20;;;;;;;4.88;1.45;;;20.50;91.70;;;;;;5070664;28;20139;-71
2022/05/22 09:34:01;;;;;;;4.40;1.80;;;20.10;92.90;;;;;;5069013;28;20370;-74
2022/05/22 09:36:48;;;;;;;3.33;1.35;;;20.20;92.30;;;;;;5070002;28;20012;-73
2022/05/22 09:39:32;;;;;;;8.30;1.52;;;20.20;92.70;;;;;;5071237;28;20433;-72
2022/05/22 09:42:59;;;;;;;3.88;1.10;;;20.10;93.00;;;;;;5071380;28;20469;-72
2022/05/22 09:45:50;;;;;;;6.13;1.00;;;20.80;93.20;;;;;;5037518;28;20037;-72
2022/05/22 09:48:21;;;;;;;4.90;1.05;;;21.60;91.70;;;;;;5066536;28;20044;-72
2022/05/22 09:50:50;;;;;;;3.08;0.85;;;22.20;91.70;;;;;;5069434;28;20111;-71
2022/05/22 09:53:40;;;;;;;4.43;0.98;;;22.50;90.50;;;;;;5072868;28;20043;-69
2022/05/22 09:56:47;;;;;;;4.57;1.20;;;23.20;91.00;;;;;;5074859;28;20469;-68
2022/05/22 09:59:21;;;;;;;4.53;0.90;;;23.80;88.80;;;;;;5071970;28;20025;-69
2022/05/22 10:01:54;;;;;;;4.28;1.00;;;24.10;83.30;;;;;;5069662;28;20043;-68
2022/05/22 10:04:37;;;;;;;3.88;0.88;;;24.50;81.30;;;;;;5069105;28;20039;-68
2022/05/22 10:07:08;;;;;;;3.03;0.90;;;24.50;81.40;;;;;;5071384;28;20028;-72
2022/05/22 10:09:49;;;;;;;3.38;0.82;;;25.00;78.00;;;;;;5071558;28;20036;-68
2022/05/22 10:12:38;;;;;;;2.60;0.93;;;25.10;77.50;;;;;;5065368;28;20049;-67
2022/05/22 10:15:31;;;;;;;4.75;0.90;;;25.30;75.80;;;;;;5055128;28;20393;-69
2022/05/22 10:18:10;;;;;;;5.22;0.50;;;24.80;77.30;;;;;;5055151;28;20145;-69
2022/05/22 10:21:03;;;;;;;3.05;0.60;;;24.60;75.70;;;;;;5054876;28;20116;-69
2022/05/22 10:23:44;;;;;;;2.20;0.50;;;25.00;75.20;;;;;;5054748;28;20541;-68
2022/05/22 10:26:33;;;;;;;2.95;0.73;;;25.50;71.80;;;;;;5054907;28;20031;-68
2022/05/22 10:29:05;;;;;;;1.92;0.50;;;25.70;69.00;;;;;;5054652;28;20372;-69
2022/05/22 10:31:39;;;;;;;2.13;0.68;;;25.80;65.90;;;;;;5054767;28;20122;-67
2022/05/22 10:34:17;;;;;;;2.38;0.40;;;25.20;71.00;;;;;;5054275;28;20067;-67
2022/05/22 10:36:49;;;;;;;1.02;0.40;;;24.90;68.50;;;;;;5054535;28;20054;-68
2022/05/22 10:39:16;;;;;;;1.70;0.30;;;24.80;66.90;;;;;;5054599;28;20033;-71
2022/05/22 10:44:36;;;;;;;1.65;0.40;;;25.40;65.60;;;;;;5054136;28;20443;-70
2022/05/22 10:47:02;;;;;;;0.82;0.10;;;25.80;64.60;;;;;;5053034;28;20051;-70
2022/05/22 10:49:43;;;;;;;4.57;0.57;;;25.60;64.00;;;;;;5054261;28;20037;-72
2022/05/22 10:52:14;;;;;;;2.40;0.40;;;26.20;61.50;;;;;;5054016;28;20033;-71
2022/05/22 10:54:50;;;;;;;1.42;0.20;;;26.00;62.00;;;;;;5054115;28;20405;-70
2022/05/22 10:57:17;;;;;;;2.15;0.32;;;25.50;64.70;;;;;;5054699;28;20021;-70
2022/05/22 10:59:44;;;;;;;1.75;0.35;;;25.20;59.60;;;;;;5054035;28;20033;-70
2022/05/22 11:02:23;;;;;;;1.83;0.28;;;25.50;59.40;;;;;;5053509;28;20025;-71
2022/05/22 11:04:50;;;;;;;1.02;0.30;;;25.40;60.00;;;;;;5052586;28;20029;-70
2022/05/22 11:07:47;;;;;;;0.95;0.20;;;25.40;60.50;;;;;;5053948;28;20032;-72
2022/05/22 11:10:16;;;;;;;0.75;0.10;;;25.40;56.70;;;;;;5053999;28;20044;-70
2022/05/22 11:12:42;;;;;;;0.65;0.20;;;25.20;58.50;;;;;;5053731;28;20029;-70
2022/05/22 11:15:15;;;;;;;1.63;0.38;;;25.60;60.60;;;;;;5062678;28;20087;-70
2022/05/22 11:17:41;;;;;;;1.30;0.10;;;26.00;55.40;;;;;;5073860;28;20021;-71
2022/05/22 11:20:21;;;;;;;2.17;0.38;;;26.10;49.40;;;;;;5073780;28;20035;-70
2022/05/22 11:23:17;;;;;;;0.40;0.10;;;25.90;56.90;;;;;;5073706;28;20489;-70
2022/05/22 11:25:43;;;;;;;;;;;26.90;53.50;;;;;;5074138;28;20090;-69
2022/05/22 11:28:27;;;;;;;2.30;0.13;;;26.80;49.30;;;;;;5073712;28;19908;-70
2022/05/22 11:31:05;;;;;;;1.13;0.30;;;27.10;47.80;;;;;;5073373;28;20508;-69
2022/05/22 11:33:46;;;;;;;0.60;0.20;;;27.00;52.10;;;;;;5073728;28;20437;-73
2022/05/22 11:36:52;;;;;;;0.82;0.30;;;27.20;43.20;;;;;;5072269;28;20107;-70
2022/05/22 11:39:23;;;;;;;;;;;27.20;46.70;;;;;;5073996;28;20066;-69
2022/05/22 11:42:17;;;;;;;0.45;0.20;;;26.80;49.60;;;;;;5073263;28;19920;-70
2022/05/22 11:44:52;;;;;;;0.35;0.10;;;26.90;44.80;;;;;;5073181;28;20361;-69
2022/05/22 11:47:39;;;;;;;0.52;0.10;;;28.00;43.50;;;;;;5073257;28;20047;-69
2022/05/22 11:50:32;;;;;;;0.85;0.22;;;28.30;46.20;;;;;;5073292;28;20252;-69
2022/05/22 11:53:31;;;;;;;1.92;0.30;;;27.70;45.20;;;;;;5073140;28;20054;-68
2022/05/22 11:56:06;;;;;;;2.97;0.45;;;27.70;47.20;;;;;;5073310;28;20362;-70
2022/05/22 11:58:34;;;;;;;0.38;0.10;;;28.10;50.70;;;;;;5073432;28;20020;-69
2022/05/22 12:01:18;;;;;;;1.40;0.47;;;28.00;45.50;;;;;;5072944;28;20035;-70
2022/05/22 12:04:08;;;;;;;1.40;0.20;;;28.10;45.40;;;;;;5072465;28;20089;-70
2022/05/22 12:07:01;;;;;;;1.25;0.10;;;28.40;48.50;;;;;;5072840;28;20089;-71
2022/05/22 12:09:29;;;;;;;0.82;0.10;;;28.40;44.60;;;;;;5072857;28;20374;-71
2022/05/22 12:12:28;;;;;;;0.73;0.10;;;27.80;42.90;;;;;;5072613;28;20028;-71
2022/05/22 12:15:26;;;;;;;0.60;0.10;;;28.70;47.50;;;;;;5071638;28;20040;-69
2022/05/22 12:18:00;;;;;;;1.05;0.10;;;29.30;42.50;;;;;;5068217;28;20040;-71
2022/05/22 12:20:54;;;;;;;0.70;0.10;;;29.00;42.20;;;;;;5072419;28;20035;-71
2022/05/22 12:24:08;;;;;;;1.13;0.10;;;29.40;39.20;;;;;;5072496;28;20029;-71
2022/05/22 12:26:35;;;;;;;0.35;0.08;;;29.00;41.50;;;;;;5017961;28;20033;-69
2022/05/22 12:29:04;;;;;;;;;;;28.40;42.70;;;;;;5072702;28;20034;-69
2022/05/22 12:31:44;;;;;;;0.98;0.20;;;28.10;43.40;;;;;;5072642;28;19920;-69
2022/05/22 12:34:14;;;;;;;0.73;0.10;;;27.80;40.50;;;;;;5072393;28;20056;-70
2022/05/22 12:36:44;;;;;;;0.70;0.10;;;28.40;40.90;;;;;;5070995;28;20032;-70
2022/05/22 12:39:13;;;;;;;0.30;0.10;;;29.80;39.70;;;;;;5072137;28;20074;-70
2022/05/22 12:42:01;;;;;;;0.60;0.10;;;29.70;39.00;;;;;;5072482;28;20028;-69
2022/05/22 12:44:28;;;;;;;0.47;0.03;;;29.70;39.20;;;;;;5072432;28;20025;-70
2022/05/22 12:46:57;;;;;;;0.70;0.20;;;29.80;38.20;;;;;;5072226;28;20068;-69
2022/05/22 12:49:30;;;;;;;2.70;0.20;;;29.80;40.10;;;;;;5072216;28;20040;-69
2022/05/22 12:52:15;;;;;;;1.45;0.30;;;29.20;39.90;;;;;;5072283;28;20096;-69
2022/05/22 12:54:41;;;;;;;1.92;0.20;;;28.70;40.30;;;;;;5072284;28;20032;-69
2022/05/22 12:57:10;;;;;;;1.57;0.10;;;28.10;41.00;;;;;;5072280;28;20029;-69
2022/05/22 12:59:36;;;;;;;2.40;0.30;;;28.10;43.70;;;;;;5072192;28;20812;-72
2022/05/22 13:02:03;;;;;;;0.45;0.20;;;27.60;42.60;;;;;;5071712;28;20107;-70
2022/05/22 13:04:36;;;;;;;0.40;0.13;;;26.60;40.00;;;;;;5071968;28;20024;-69
2022/05/22 13:07:10;;;;;;;0.90;0.20;;;25.60;42.60;;;;;;5070542;28;20032;-69
2022/05/22 13:09:36;;;;;;;1.70;0.40;;;24.90;47.60;;;;;;5071827;28;20071;-69
2022/05/22 13:12:28;;;;;;;0.55;0.10;;;24.30;52.90;;;;;;5071946;28;20117;-69
2022/05/22 13:15:03;;;;;;;0.40;0.20;;;24.40;54.60;;;;;;5072063;28;20027;-69
2022/05/22 13:17:50;;;;;;;0.98;0.30;;;24.70;48.00;;;;;;5072228;28;20150;-69
2022/05/22 13:20:36;;;;;;;1.90;0.20;;;24.70;52.80;;;;;;5072021;28;20124;-68